createdAt,value
2024-03-20T00:00:34.926Z,96062.30
2024-03-20T00:03:01.549Z,96044.30
2024-03-20T00:05:28.338Z,96062.13
2024-03-20T00:07:56.265Z,96060.60
2024-03-20T00:10:23.714Z,96061.59
2024-03-20T00:12:50.118Z,96058.35
2024-03-20T00:15:16.479Z,96061.73
2024-03-20T00:17:42.926Z,96048.23
2024-03-20T00:20:09.806Z,96061.98
2024-03-20T00:22:36.384Z,96061.05
2024-03-20T00:25:02.792Z,96060.60
2024-03-20T00:27:29.157Z,96059.98
2024-03-20T00:29:55.667Z,96063.90
2024-03-20T00:32:22.114Z,96057.68
2024-03-20T00:34:48.683Z,96065.37
2024-03-20T00:37:15.047Z,96065.76
2024-03-20T00:39:41.621Z,96066.61
2024-03-20T00:42:08.246Z,96064.06
2024-03-20T00:44:37.416Z,96064.08
2024-03-20T00:47:05.419Z,96059.54
2024-03-20T00:49:32.563Z,96041.11
2024-03-20T00:51:59.279Z,96062.23
2024-03-20T00:54:26.679Z,96056.92
2024-03-20T00:56:53.117Z,96055.30
2024-03-20T00:59:21.433Z,96053.77
2024-03-20T01:01:48.669Z,96053.31
2024-03-20T01:04:17.735Z,96053.54
2024-03-20T01:06:44.979Z,96052.84
2024-03-20T01:09:11.452Z,96052.68
2024-03-20T01:11:37.833Z,96050.91
2024-03-20T01:14:04.249Z,96050.98
2024-03-20T01:16:30.621Z,96051.81
2024-03-20T01:18:57.401Z,96051.13
2024-03-20T01:21:23.804Z,96055.56
2024-03-20T01:23:50.230Z,96011.93
2024-03-20T01:26:16.621Z,96027.18
2024-03-20T01:28:43.057Z,96018.49
2024-03-20T01:31:09.540Z,96038.72
2024-03-20T01:33:35.893Z,96038.70
2024-03-20T01:36:02.345Z,96042.61
2024-03-20T01:38:28.740Z,96039.86
2024-03-20T01:40:55.243Z,96037.77
2024-03-20T01:43:21.745Z,96033.45
2024-03-20T01:45:48.730Z,96028.52
2024-03-20T01:48:15.804Z,96028.05
2024-03-20T01:50:42.583Z,96027.20
2024-03-20T01:53:09.930Z,96026.13
2024-03-20T01:55:36.690Z,96025.14
2024-03-20T01:58:03.195Z,96020.90
2024-03-20T02:00:32.661Z,96025.36
2024-03-20T02:03:03.335Z,96026.20
2024-03-20T02:05:30.200Z,96028.21
2024-03-20T02:07:56.975Z,96026.30
2024-03-20T02:10:23.830Z,96012.08
2024-03-20T02:13:02.943Z,96029.90
2024-03-20T02:15:29.502Z,96027.36
2024-03-20T02:17:56.251Z,96025.22
2024-03-20T02:20:22.664Z,96027.59
2024-03-20T02:22:49.306Z,96027.45
2024-03-20T02:25:18.436Z,96031.05
2024-03-20T02:27:45.026Z,96031.67
2024-03-20T02:30:13.193Z,96029.92
2024-03-20T02:32:40.468Z,96030.11
2024-03-20T02:35:07.199Z,96007.69
2024-03-20T02:37:33.774Z,96025.20
2024-03-20T02:40:00.296Z,96024.88
2024-03-20T02:42:26.678Z,96026.35
2024-03-20T02:44:53.349Z,96026.19
2024-03-20T02:47:19.971Z,96021.71
2024-03-20T02:49:51.817Z,96025.34
2024-03-20T02:52:19.117Z,96022.48
2024-03-20T02:54:45.617Z,96023.94
2024-03-20T02:57:12.258Z,96023.26
2024-03-20T02:59:38.689Z,96024.80
2024-03-20T03:02:05.224Z,96020.48
2024-03-20T03:04:31.560Z,96024.26
2024-03-20T03:06:58.003Z,96019.37
2024-03-20T03:09:25.975Z,96025.33
2024-03-20T03:11:52.751Z,96026.70
2024-03-20T03:14:19.172Z,96017.75
2024-03-20T03:16:45.558Z,96026.78
2024-03-20T03:19:11.917Z,96028.95
2024-03-20T03:21:38.360Z,96028.56
2024-03-20T03:24:05.290Z,96032.11
2024-03-20T03:26:34.734Z,96034.27
2024-03-20T03:29:01.229Z,96035.80
2024-03-20T03:31:28.282Z,96032.50
2024-03-20T03:33:54.893Z,96031.58
2024-03-20T03:36:21.334Z,96032.66
2024-03-20T03:38:47.773Z,96037.42
2024-03-20T03:41:17.011Z,96037.42
2024-03-20T03:43:43.665Z,96040.27
2024-03-20T03:46:10.029Z,96043.27
2024-03-20T03:48:36.499Z,96041.73
2024-03-20T03:51:04.384Z,96020.68
2024-03-20T03:53:31.016Z,96041.43
2024-03-20T03:55:57.383Z,96046.05
2024-03-20T03:58:23.713Z,96050.13
2024-03-20T04:00:50.413Z,96051.67
2024-03-20T04:03:16.919Z,96053.52
2024-03-20T04:05:45.220Z,96052.45
2024-03-20T04:08:11.571Z,96052.45
2024-03-20T04:10:38.051Z,96056.30
2024-03-20T04:13:04.673Z,96057.76
2024-03-20T04:15:31.107Z,96054.57
2024-03-20T04:17:57.509Z,96064.32
2024-03-20T04:20:24.238Z,96070.16
2024-03-20T04:22:50.650Z,96066.61
2024-03-20T04:25:17.157Z,96065.84
2024-03-20T04:27:43.621Z,96052.59
2024-03-20T04:30:13.270Z,96051.08
2024-03-20T04:32:40.113Z,96064.15
2024-03-20T04:35:06.822Z,96068.98
2024-03-20T04:37:33.184Z,96013.46
2024-03-20T04:39:59.556Z,96063.53
2024-03-20T04:42:25.929Z,96068.67
2024-03-20T04:44:52.427Z,96071.23
2024-03-20T04:47:18.831Z,96072.45
2024-03-20T04:49:45.215Z,96072.14
2024-03-20T04:52:11.629Z,96049.27
2024-03-20T04:54:37.998Z,96074.91
2024-03-20T04:57:04.453Z,96077.98
2024-03-20T04:59:30.853Z,96076.38
2024-03-20T05:01:57.469Z,96072.90
2024-03-20T05:04:23.910Z,96070.36
2024-03-20T05:06:50.252Z,96070.98
2024-03-20T05:09:16.714Z,96072.14
2024-03-20T05:11:43.083Z,96070.23
2024-03-20T05:14:09.456Z,96071.14
2024-03-20T05:16:36.010Z,96064.88
2024-03-20T05:19:02.393Z,96071.60
2024-03-20T05:21:29.104Z,96068.73
2024-03-20T05:23:55.639Z,96067.82
2024-03-20T05:26:22.154Z,96065.52
2024-03-20T05:28:48.528Z,96071.83
2024-03-20T05:31:31.004Z,96068.77
2024-03-20T05:33:57.407Z,96066.64
2024-03-20T05:36:24.021Z,96065.02
2024-03-20T05:38:50.459Z,96064.88
2024-03-20T05:41:16.866Z,96066.64
2024-03-20T05:43:43.562Z,96063.94
2024-03-20T05:46:13.602Z,96069.55
2024-03-20T05:48:40.708Z,96066.33
2024-03-20T05:51:09.834Z,96067.56
2024-03-20T05:53:36.247Z,96071.77
2024-03-20T05:56:02.768Z,96079.23
2024-03-20T05:58:29.324Z,96083.45
2024-03-20T06:00:55.717Z,96085.83
2024-03-20T06:03:22.132Z,96057.82
2024-03-20T06:05:48.624Z,96087.96
2024-03-20T06:08:15.084Z,96091.80
2024-03-20T06:10:41.509Z,96089.86
2024-03-20T06:13:07.923Z,96093.92
2024-03-20T06:15:35.464Z,96092.08
2024-03-20T06:18:01.857Z,96092.45
2024-03-20T06:20:28.239Z,96095.52
2024-03-20T06:22:54.647Z,96093.29
2024-03-20T06:25:21.076Z,96097.05
2024-03-20T06:27:47.446Z,96098.91
2024-03-20T06:30:16.584Z,96101.81
2024-03-20T06:32:43.260Z,96098.66
2024-03-20T06:35:09.733Z,96101.59
2024-03-20T06:37:36.618Z,96101.59
2024-03-20T06:40:04.746Z,96103.05
2024-03-20T06:42:31.232Z,96100.75
2024-03-20T06:44:57.641Z,96101.85
2024-03-20T06:47:26.647Z,96103.04
2024-03-20T06:49:53.119Z,96096.89
2024-03-20T06:52:24.884Z,96104.34
2024-03-20T06:54:53.554Z,96108.19
2024-03-20T06:57:20.005Z,96104.83
2024-03-20T06:59:46.774Z,96105.12
2024-03-20T07:02:13.978Z,96104.35
2024-03-20T07:04:40.557Z,96107.35
2024-03-20T07:07:07.039Z,96101.88
2024-03-20T07:09:33.779Z,96101.04
2024-03-20T07:12:00.561Z,96103.50
2024-03-20T07:14:28.388Z,96103.34
2024-03-20T07:16:54.840Z,96105.40
2024-03-20T07:19:21.402Z,96105.25
2024-03-20T07:21:47.771Z,96101.03
2024-03-20T07:24:14.377Z,96109.05
2024-03-20T07:26:40.766Z,96111.42
2024-03-20T07:29:07.659Z,96113.64
2024-03-20T07:31:34.648Z,96118.70
2024-03-20T07:34:01.617Z,96124.45
2024-03-20T07:36:28.501Z,96121.66
2024-03-20T07:38:56.528Z,96125.42
2024-03-20T07:41:23.530Z,96124.62
2024-03-20T07:43:50.325Z,96123.83
2024-03-20T07:46:17.235Z,96126.90
2024-03-20T07:48:47.064Z,96081.20
2024-03-20T07:51:18.065Z,96127.04
2024-03-20T07:53:45.554Z,96127.40
2024-03-20T07:56:15.898Z,96109.89
2024-03-20T07:58:43.354Z,96125.43
2024-03-20T08:01:12.548Z,96127.09
2024-03-20T08:03:40.307Z,96108.49
2024-03-20T08:06:06.758Z,96119.32
2024-03-20T08:08:33.290Z,96128.91
2024-03-20T08:10:59.756Z,96099.22
2024-03-20T08:13:26.165Z,96132.95
2024-03-20T08:15:52.889Z,96131.75
2024-03-20T08:18:19.270Z,96135.38
2024-03-20T08:20:45.766Z,96135.83
2024-03-20T08:23:12.181Z,96139.04
2024-03-20T08:25:38.662Z,96137.48
2024-03-20T08:28:05.844Z,96133.17
2024-03-20T08:30:32.310Z,96137.93
2024-03-20T08:32:58.943Z,96136.83
2024-03-20T08:35:25.631Z,96131.42
2024-03-20T08:37:52.116Z,96133.05
2024-03-20T08:40:18.579Z,96128.80
2024-03-20T08:42:45.926Z,96126.63
2024-03-20T08:45:12.313Z,96126.08
2024-03-20T08:47:38.811Z,96127.54
2024-03-20T08:50:05.678Z,96124.67
2024-03-20T08:52:32.828Z,96123.90
2024-03-20T08:54:59.296Z,96123.96
2024-03-20T08:57:25.739Z,96123.58
2024-03-20T08:59:52.088Z,96127.12
2024-03-20T09:02:18.464Z,96116.55
2024-03-20T09:04:44.832Z,96124.93
2024-03-20T09:07:11.473Z,96118.06
2024-03-20T09:09:38.240Z,96115.13
2024-03-20T09:12:05.378Z,96121.57
2024-03-20T09:14:35.004Z,96115.31
2024-03-20T09:17:01.728Z,96112.48
2024-03-20T09:19:28.172Z,96113.39
2024-03-20T09:21:55.918Z,96113.84
2024-03-20T09:24:24.879Z,96114.28
2024-03-20T09:26:52.515Z,96113.81
2024-03-20T09:29:19.582Z,96111.19
2024-03-20T09:31:46.096Z,96089.04
2024-03-20T09:34:12.493Z,96108.85
2024-03-20T09:36:39.467Z,96113.02
2024-03-20T09:39:06.002Z,96110.77
2024-03-20T09:41:36.285Z,96108.52
2024-03-20T09:44:02.773Z,96110.00
2024-03-20T09:46:29.575Z,96102.45
2024-03-20T09:48:56.048Z,96102.00
2024-03-20T09:51:22.421Z,96100.98
2024-03-20T09:53:52.777Z,96054.56
2024-03-20T09:56:21.906Z,96094.83
2024-03-20T09:58:49.041Z,96088.12
2024-03-20T10:01:18.491Z,96092.58
2024-03-20T10:03:45.032Z,96086.34
2024-03-20T10:06:12.027Z,96089.56
2024-03-20T10:08:40.470Z,96093.41
2024-03-20T10:11:08.925Z,96090.41
2024-03-20T10:13:35.837Z,96090.34
2024-03-20T10:16:15.479Z,96090.11
2024-03-20T10:18:49.082Z,96087.20
2024-03-20T10:21:15.479Z,96081.25
2024-03-20T10:23:42.952Z,96083.55
2024-03-20T10:26:15.985Z,96078.38
2024-03-20T10:28:43.197Z,96085.19
2024-03-20T10:31:16.780Z,96079.73
2024-03-20T10:33:50.266Z,96081.21
2024-03-20T10:36:18.899Z,96081.76
2024-03-20T10:38:45.459Z,96070.84
2024-03-20T10:41:15.096Z,96081.77
2024-03-20T10:43:41.481Z,96079.25
2024-03-20T10:46:17.816Z,96078.64
2024-03-20T10:48:44.255Z,96077.02
2024-03-20T10:51:13.464Z,96076.65
2024-03-20T10:53:39.838Z,96075.59
2024-03-20T10:56:06.445Z,96054.20
2024-03-20T10:58:34.756Z,96066.90
2024-03-20T11:01:01.215Z,96064.34
2024-03-20T11:03:49.848Z,96070.38
2024-03-20T11:06:31.989Z,96067.08
2024-03-20T11:08:59.605Z,96061.77
2024-03-20T11:11:29.094Z,96040.28
2024-03-20T11:13:58.629Z,96062.61
2024-03-20T11:16:25.032Z,96061.70
2024-03-20T11:18:54.848Z,96068.48
2024-03-20T11:21:22.219Z,96063.85
2024-03-20T11:23:48.677Z,96064.23
2024-03-20T11:26:15.100Z,96066.08
2024-03-20T11:28:50.592Z,96064.54
2024-03-20T11:31:17.467Z,96060.60
2024-03-20T11:33:44.208Z,96064.39
2024-03-20T11:36:14.688Z,96056.55
2024-03-20T11:38:41.323Z,96054.92
2024-03-20T11:41:10.413Z,96054.85
2024-03-20T11:43:36.957Z,96048.45
2024-03-20T11:46:03.431Z,96027.26
2024-03-20T11:48:29.827Z,96046.22
2024-03-20T11:50:56.903Z,96038.91
2024-03-20T11:53:25.076Z,96020.33
2024-03-20T11:55:51.916Z,96038.90
2024-03-20T11:58:19.550Z,96044.23
2024-03-20T12:00:45.964Z,96041.65
2024-03-20T12:03:22.819Z,96036.71
2024-03-20T12:05:50.202Z,96036.89
2024-03-20T12:08:18.570Z,96036.13
2024-03-20T12:10:44.976Z,96031.77
2024-03-20T12:13:13.320Z,96030.73
2024-03-20T12:15:40.724Z,96028.96
2024-03-20T12:18:07.298Z,96027.75
2024-03-20T12:20:34.645Z,96024.00
2024-03-20T12:23:04.694Z,96023.48
2024-03-20T12:25:31.281Z,96023.65
2024-03-20T12:27:57.622Z,96022.91
2024-03-20T12:30:25.595Z,96027.70
2024-03-20T12:32:51.935Z,96026.79
2024-03-20T12:35:18.468Z,96025.02
2024-03-20T12:37:45.158Z,96025.25
2024-03-20T12:40:13.290Z,96030.33
2024-03-20T12:42:40.527Z,96027.80
2024-03-20T12:45:07.326Z,96030.96
2024-03-20T12:47:33.761Z,96028.58
2024-03-20T12:50:00.244Z,96027.44
2024-03-20T12:52:29.717Z,96025.98
2024-03-20T12:54:56.357Z,96022.27
2024-03-20T12:57:23.262Z,96017.27
2024-03-20T12:59:52.467Z,96015.32
2024-03-20T13:02:19.331Z,96015.47
2024-03-20T13:04:45.714Z,96011.66
2024-03-20T13:07:15.672Z,96015.69
2024-03-20T13:09:42.172Z,95989.63
2024-03-20T13:12:12.068Z,96011.35
2024-03-20T13:14:38.661Z,96011.87
2024-03-20T13:17:05.849Z,96010.58
2024-03-20T13:19:33.453Z,96011.88
2024-03-20T13:22:04.258Z,96009.95
2024-03-20T13:24:30.711Z,96006.41
2024-03-20T13:26:57.110Z,96004.71
2024-03-20T13:29:28.978Z,96003.40
2024-03-20T13:31:59.072Z,96002.88
2024-03-20T13:34:27.133Z,96005.64
2024-03-20T13:36:56.454Z,96004.04
2024-03-20T13:39:45.276Z,96001.27
2024-03-20T13:42:20.972Z,95986.30
2024-03-20T13:44:47.428Z,96003.59
2024-03-20T13:47:13.814Z,95999.95
2024-03-20T13:49:40.212Z,95999.27
2024-03-20T13:52:10.164Z,95990.55
2024-03-20T13:54:36.525Z,95994.34
2024-03-20T13:57:02.971Z,95996.73
2024-03-20T13:59:29.367Z,95993.88
2024-03-20T14:01:56.884Z,95991.04
2024-03-20T14:04:23.470Z,95994.73
2024-03-20T14:06:49.836Z,95992.71
2024-03-20T14:09:16.218Z,95994.63
2024-03-20T14:11:42.596Z,95996.64
2024-03-20T14:14:08.990Z,95972.52
2024-03-20T14:16:35.336Z,95993.86
2024-03-20T14:19:01.804Z,95993.55
2024-03-20T14:21:28.236Z,95987.20
2024-03-20T14:23:55.491Z,95990.23
2024-03-20T14:26:22.968Z,95991.62
2024-03-20T14:29:11.922Z,95993.69
2024-03-20T14:31:38.543Z,95994.52
2024-03-20T14:34:04.921Z,95989.36
2024-03-20T14:36:32.232Z,95988.52
2024-03-20T14:38:58.775Z,95986.45
2024-03-20T14:41:25.157Z,95977.05
2024-03-20T14:43:52.347Z,95981.80
2024-03-20T14:46:20.905Z,95975.90
2024-03-20T14:48:48.809Z,95976.52
2024-03-20T14:51:24.321Z,95973.75
2024-03-20T14:53:52.900Z,95963.04
2024-03-20T14:56:22.472Z,95958.31
2024-03-20T14:58:51.193Z,95972.90
2024-03-20T15:01:18.945Z,95967.20
2024-03-20T15:03:45.467Z,95967.51
2024-03-20T15:06:15.856Z,95969.36
2024-03-20T15:08:42.310Z,95967.06
2024-03-20T15:11:14.410Z,95952.35
2024-03-20T15:13:41.460Z,95944.79
2024-03-20T15:16:16.338Z,95961.66
2024-03-20T15:18:43.360Z,95962.42
2024-03-20T15:21:17.001Z,95958.34
2024-03-20T15:23:44.115Z,95965.13
2024-03-20T15:26:11.207Z,95965.14
2024-03-20T15:28:38.313Z,95968.63
2024-03-20T15:31:06.369Z,95946.99
2024-03-20T15:33:32.757Z,95969.11
2024-03-20T15:35:59.263Z,95968.64
2024-03-20T15:38:25.914Z,95966.09
2024-03-20T15:40:53.595Z,95956.33
2024-03-20T15:43:20.092Z,95963.17
2024-03-20T15:45:46.504Z,95964.48
2024-03-20T15:48:14.535Z,95964.64
2024-03-20T15:50:41.050Z,95966.63
2024-03-20T15:53:13.641Z,95967.68
2024-03-20T15:55:41.218Z,95964.91
2024-03-20T15:58:10.699Z,95963.43
2024-03-20T16:00:40.823Z,95954.54
2024-03-20T16:03:08.244Z,95954.00
2024-03-20T16:05:34.647Z,95966.42
2024-03-20T16:08:03.038Z,95968.58
2024-03-20T16:10:29.476Z,95968.58
2024-03-20T16:12:56.136Z,95968.64
2024-03-20T16:15:22.843Z,95957.39
2024-03-20T16:17:49.221Z,95970.37
2024-03-20T16:20:18.416Z,95974.70
2024-03-20T16:22:45.923Z,95975.50
2024-03-20T16:25:12.734Z,95975.50
2024-03-20T16:27:45.528Z,95973.28
2024-03-20T16:30:24.543Z,95974.23
2024-03-20T16:32:51.271Z,95976.71
2024-03-20T16:35:18.816Z,95975.07
2024-03-20T16:37:45.527Z,95954.73
2024-03-20T16:40:13.393Z,95964.59
2024-03-20T16:42:42.827Z,95980.76
2024-03-20T16:45:11.099Z,95985.06
2024-03-20T16:47:40.649Z,95965.19
2024-03-20T16:50:07.563Z,95989.23
2024-03-20T16:52:34.229Z,95988.56
2024-03-20T16:55:00.630Z,95979.55
2024-03-20T16:57:27.155Z,95985.12
2024-03-20T16:59:58.094Z,95987.36
2024-03-20T17:02:26.212Z,95986.13
2024-03-20T17:04:55.909Z,95991.39
2024-03-20T17:07:23.103Z,95991.39
2024-03-20T17:09:49.529Z,95988.48
2024-03-20T17:12:16.290Z,95989.79
2024-03-20T17:14:47.043Z,95991.55
2024-03-20T17:17:13.820Z,95978.78
2024-03-20T17:19:40.336Z,95997.29
2024-03-20T17:22:12.010Z,95996.54
2024-03-20T17:24:38.432Z,96000.86
2024-03-20T17:27:05.266Z,95985.98
2024-03-20T17:29:32.868Z,96000.62
2024-03-20T17:32:01.112Z,96007.20
2024-03-20T17:34:28.784Z,96004.25
2024-03-20T17:36:55.216Z,96003.77
2024-03-20T17:39:22.426Z,96004.71
2024-03-20T17:41:52.862Z,95983.39
2024-03-20T17:44:19.930Z,96010.61
2024-03-20T17:46:48.568Z,96006.08
2024-03-20T17:49:15.899Z,95974.45
2024-03-20T17:51:42.356Z,96008.59
2024-03-20T17:54:08.871Z,96008.20
2024-03-20T17:56:35.256Z,96011.52
2024-03-20T17:59:01.836Z,96013.13
2024-03-20T18:01:29.889Z,96014.96
2024-03-20T18:03:56.553Z,96017.05
2024-03-20T18:06:23.886Z,96022.45
2024-03-20T18:08:50.360Z,96000.48
2024-03-20T18:11:17.424Z,96021.19
2024-03-20T18:13:44.132Z,96020.86
2024-03-20T18:16:10.657Z,96000.48
2024-03-20T18:18:40.249Z,96024.70
2024-03-20T18:21:06.593Z,96026.86
2024-03-20T18:23:33.491Z,96027.54
2024-03-20T18:26:00.546Z,96028.85
2024-03-20T18:28:27.572Z,96029.39
2024-03-20T18:30:54.810Z,96035.33
2024-03-20T18:33:21.197Z,96028.20
2024-03-20T18:35:47.703Z,96036.16
2024-03-20T18:38:14.798Z,96038.09
2024-03-20T18:40:41.973Z,96032.83
2024-03-20T18:43:08.520Z,96041.94
2024-03-20T18:45:35.519Z,96040.89
2024-03-20T18:48:02.230Z,96039.35
2024-03-20T18:50:29.360Z,96016.86
2024-03-20T18:52:55.744Z,96046.11
2024-03-20T18:55:22.190Z,96038.08
2024-03-20T18:57:48.702Z,96046.11
2024-03-20T19:00:24.402Z,96051.64
2024-03-20T19:02:53.021Z,96045.56
2024-03-20T19:05:24.293Z,96048.09
2024-03-20T19:07:50.739Z,96041.67
2024-03-20T19:10:17.097Z,96047.77
2024-03-20T19:12:43.571Z,96052.09
2024-03-20T19:15:10.287Z,96055.93
2024-03-20T19:17:36.676Z,96052.85
2024-03-20T19:20:08.201Z,96053.84
2024-03-20T19:22:34.909Z,96045.86
2024-03-20T19:25:01.531Z,96057.48
2024-03-20T19:27:28.000Z,96055.55
2024-03-20T19:29:55.069Z,96057.86
2024-03-20T19:32:21.695Z,96061.09
2024-03-20T19:34:48.074Z,96048.04
2024-03-20T19:37:14.967Z,96058.92
2024-03-20T19:39:44.287Z,96064.87
2024-03-20T19:42:17.896Z,96050.69
2024-03-20T19:44:50.379Z,96066.20
2024-03-20T19:47:17.767Z,96066.22
2024-03-20T19:49:45.131Z,96067.38
2024-03-20T19:52:11.609Z,96066.00
2024-03-20T19:54:39.922Z,96067.70
2024-03-20T19:57:07.535Z,96067.26
2024-03-20T19:59:34.043Z,96055.30
2024-03-20T20:02:00.488Z,96065.84
2024-03-20T20:04:26.974Z,96065.00
2024-03-20T20:06:57.437Z,96062.08
2024-03-20T20:09:25.198Z,96061.73
2024-03-20T20:11:51.631Z,96042.84
2024-03-20T20:14:18.055Z,96066.36
2024-03-20T20:16:44.555Z,96064.22
2024-03-20T20:19:11.023Z,96066.91
2024-03-20T20:21:37.479Z,96062.92
2024-03-20T20:24:04.085Z,96061.84
2024-03-20T20:26:30.509Z,96059.30
2024-03-20T20:28:58.113Z,96059.14
2024-03-20T20:31:28.426Z,96061.14
2024-03-20T20:33:55.311Z,96062.36
2024-03-20T20:36:22.078Z,96063.84
2024-03-20T20:38:48.486Z,96065.08
2024-03-20T20:41:14.932Z,96066.71
2024-03-20T20:43:41.376Z,96072.79
2024-03-20T20:46:10.608Z,96071.16
2024-03-20T20:48:37.934Z,96068.25
2024-03-20T20:51:05.544Z,96067.77
2024-03-20T20:53:31.990Z,96071.48
2024-03-20T20:55:58.393Z,96068.24
2024-03-20T20:58:27.591Z,96066.61
2024-03-20T21:00:54.078Z,96028.95
2024-03-20T21:03:39.055Z,96069.30
2024-03-20T21:06:24.664Z,96072.61
2024-03-20T21:09:09.726Z,96071.69
2024-03-20T21:11:54.780Z,96063.84
2024-03-20T21:14:39.923Z,96068.98
2024-03-20T21:17:24.927Z,96065.40
2024-03-20T21:19:55.048Z,96069.23
2024-03-20T21:22:21.577Z,96074.23
2024-03-20T21:24:48.958Z,96075.60
2024-03-20T21:27:16.054Z,96053.41
2024-03-20T21:29:45.476Z,96077.83
2024-03-20T21:32:11.851Z,96065.64
2024-03-20T21:34:38.251Z,96078.60
2024-03-20T21:37:09.218Z,96081.36
2024-03-20T21:39:43.645Z,96081.27
2024-03-20T21:42:13.206Z,96059.70
2024-03-20T21:44:41.141Z,96076.52
2024-03-20T21:47:10.916Z,96085.52
2024-03-20T21:49:37.578Z,96086.63
2024-03-20T21:52:05.124Z,96086.23
2024-03-20T21:54:32.197Z,96085.87
2024-03-20T21:56:58.619Z,96089.93
2024-03-20T21:59:25.304Z,96090.77
2024-03-20T22:01:51.727Z,96095.92
2024-03-20T22:04:18.731Z,96082.40
2024-03-20T22:06:45.780Z,96099.70
2024-03-20T22:11:46.079Z,96101.27
2024-03-20T22:14:14.905Z,96108.58
2024-03-20T22:16:45.268Z,96107.36
2024-03-20T22:19:12.246Z,96112.75
2024-03-20T22:21:39.108Z,96079.92
2024-03-20T22:24:05.834Z,96073.40
2024-03-20T22:26:32.264Z,96111.06
2024-03-20T22:28:58.687Z,96116.36
2024-03-20T22:31:25.215Z,96115.30
2024-03-20T22:33:55.744Z,96097.44
2024-03-20T22:36:22.169Z,96113.60
2024-03-20T22:38:48.900Z,96113.92
2024-03-20T22:41:15.753Z,96115.09
2024-03-20T22:43:55.706Z,96114.02
2024-03-20T22:46:25.695Z,96120.27
2024-03-20T22:48:52.844Z,96125.58
2024-03-20T22:51:19.860Z,96126.20
2024-03-20T22:53:46.684Z,96131.59
2024-03-20T22:56:13.130Z,96132.36
2024-03-20T22:58:39.542Z,96134.83
2024-03-20T23:01:05.971Z,96133.35
2024-03-20T23:03:32.482Z,96128.98
2024-03-20T23:06:00.931Z,96122.80
2024-03-20T23:08:30.841Z,96115.32
2024-03-20T23:10:58.105Z,96111.79
2024-03-20T23:13:24.803Z,96113.64
2024-03-20T23:15:51.181Z,96109.95
2024-03-20T23:18:17.745Z,96116.42
2024-03-20T23:20:44.701Z,96111.27
2024-03-20T23:23:11.288Z,96113.33
2024-03-20T23:25:39.059Z,96116.26
2024-03-20T23:28:06.352Z,96112.48
2024-03-20T23:30:32.738Z,96114.34
2024-03-20T23:33:00.714Z,96119.20
2024-03-20T23:35:27.196Z,96124.52
2024-03-20T23:37:53.582Z,96123.89
2024-03-20T23:40:21.232Z,96123.73
2024-03-20T23:42:47.732Z,96123.49
2024-03-20T23:45:15.837Z,96114.02
2024-03-20T23:47:43.096Z,96113.41
2024-03-20T23:50:09.894Z,96095.86
2024-03-20T23:52:37.007Z,96112.65
2024-03-20T23:55:03.794Z,96113.42
2024-03-20T23:57:30.191Z,96117.05
2024-03-20T23:59:56.692Z,96113.23
